sensor_id;sensor_type;location;lat;lon;timestamp;pressure;altitude;pressure_sealevel;temperature;humidity
45523;BME280;31254;51.680;5.394;2023-06-26T00:02:18;101226.16;;;25.88;54.15
45523;BME280;31254;51.680;5.394;2023-06-26T00:04:45;101193.94;;;25.62;54.36
45523;BME280;31254;51.680;5.394;2023-06-26T00:07:11;101215.47;;;25.73;54.01
45523;BME280;31254;51.680;5.394;2023-06-26T00:09:38;101220.09;;;25.79;54.06
45523;BME280;31254;51.680;5.394;2023-06-26T00:12:05;101192.16;;;25.67;53.78
45523;BME280;31254;51.680;5.394;2023-06-26T00:14:35;101178.53;;;25.59;53.92
45523;BME280;31254;51.680;5.394;2023-06-26T00:17:02;101202.81;;;25.70;54.26
45523;BME280;31254;51.680;5.394;2023-06-26T00:19:28;101190.31;;;25.61;54.56
45523;BME280;31254;51.680;5.394;2023-06-26T00:21:55;101205.50;;;25.65;54.57
45523;BME280;31254;51.680;5.394;2023-06-26T00:24:24;101182.53;;;25.51;54.59
45523;BME280;31254;51.680;5.394;2023-06-26T00:26:51;101196.50;;;25.51;54.64
45523;BME280;31254;51.680;5.394;2023-06-26T00:29:17;101198.19;;;25.52;54.80
45523;BME280;31254;51.680;5.394;2023-06-26T00:31:44;101198.66;;;25.49;54.89
45523;BME280;31254;51.680;5.394;2023-06-26T00:34:11;101189.81;;;25.41;54.94
45523;BME280;31254;51.680;5.394;2023-06-26T00:36:38;101199.25;;;25.40;55.29
45523;BME280;31254;51.680;5.394;2023-06-26T00:39:04;101199.25;;;25.40;55.29
45523;BME280;31254;51.680;5.394;2023-06-26T00:41:31;101200.09;;;25.28;55.58
45523;BME280;31254;51.680;5.394;2023-06-26T00:44:01;101215.06;;;25.34;55.26
45523;BME280;31254;51.680;5.394;2023-06-26T00:46:30;101203.31;;;25.25;55.60
45523;BME280;31254;51.680;5.394;2023-06-26T00:49:03;101218.88;;;25.21;55.73
45523;BME280;31254;51.680;5.394;2023-06-26T00:51:30;101208.28;;;25.11;56.17
45523;BME280;31254;51.680;5.394;2023-06-26T00:53:57;101199.41;;;25.03;56.25
45523;BME280;31254;51.680;5.394;2023-06-26T00:56:24;101204.00;;;24.97;56.23
45523;BME280;31254;51.680;5.394;2023-06-26T00:58:53;101215.38;;;24.95;56.12
45523;BME280;31254;51.680;5.394;2023-06-26T01:01:22;101221.19;;;24.94;55.90
45523;BME280;31254;51.680;5.394;2023-06-26T01:03:53;101218.97;;;24.84;55.84
45523;BME280;31254;51.680;5.394;2023-06-26T01:06:22;101223.72;;;24.84;55.19
45523;BME280;31254;51.680;5.394;2023-06-26T01:08:51;101227.44;;;24.77;55.20
45523;BME280;31254;51.680;5.394;2023-06-26T01:11:18;101230.94;;;24.73;54.65
45523;BME280;31254;51.680;5.394;2023-06-26T01:13:47;101191.69;;;24.37;54.27
45523;BME280;31254;51.680;5.394;2023-06-26T01:16:17;101236.00;;;24.64;54.00
45523;BME280;31254;51.680;5.394;2023-06-26T01:18:47;101233.53;;;24.56;54.22
45523;BME280;31254;51.680;5.394;2023-06-26T01:21:15;101188.22;;;24.23;53.86
45523;BME280;31254;51.680;5.394;2023-06-26T01:23:58;101242.19;;;24.48;54.16
45523;BME280;31254;51.680;5.394;2023-06-26T01:26:32;101232.50;;;24.32;54.32
45523;BME280;31254;51.680;5.394;2023-06-26T01:29:06;101244.50;;;24.32;54.24
45523;BME280;31254;51.680;5.394;2023-06-26T01:31:36;101238.19;;;24.18;54.36
45523;BME280;31254;51.680;5.394;2023-06-26T01:34:03;101232.00;;;24.16;54.37
45523;BME280;31254;51.680;5.394;2023-06-26T01:36:30;101259.44;;;24.19;54.17
45523;BME280;31254;51.680;5.394;2023-06-26T01:39:00;101254.16;;;24.11;54.20
45523;BME280;31254;51.680;5.394;2023-06-26T01:41:26;101265.75;;;24.08;54.22
45523;BME280;31254;51.680;5.394;2023-06-26T01:47:00;101244.34;;;23.83;54.67
45523;BME280;31254;51.680;5.394;2023-06-26T01:57:38;101264.47;;;23.60;55.84
45523;BME280;31254;51.680;5.394;2023-06-26T02:00:06;101275.59;;;23.60;55.93
45523;BME280;31254;51.680;5.394;2023-06-26T02:02:39;101270.94;;;23.54;56.17
45523;BME280;31254;51.680;5.394;2023-06-26T02:05:07;101232.19;;;23.21;56.73
45523;BME280;31254;51.680;5.394;2023-06-26T02:07:34;101275.69;;;23.47;57.08
45523;BME280;31254;51.680;5.394;2023-06-26T02:10:01;101273.81;;;23.41;57.54
45523;BME280;31254;51.680;5.394;2023-06-26T02:12:28;101268.69;;;23.38;57.71
45523;BME280;31254;51.680;5.394;2023-06-26T02:14:54;101253.63;;;23.20;57.95
45523;BME280;31254;51.680;5.394;2023-06-26T02:17:21;101275.38;;;23.30;58.45
45523;BME280;31254;51.680;5.394;2023-06-26T02:19:48;101269.00;;;23.23;58.51
45523;BME280;31254;51.680;5.394;2023-06-26T02:22:17;101248.75;;;23.09;58.83
45523;BME280;31254;51.680;5.394;2023-06-26T02:24:43;101254.94;;;23.11;58.82
45523;BME280;31254;51.680;5.394;2023-06-26T02:27:12;101256.44;;;23.07;59.00
45523;BME280;31254;51.680;5.394;2023-06-26T02:29:41;101270.78;;;23.10;59.02
45523;BME280;31254;51.680;5.394;2023-06-26T02:32:08;101259.94;;;22.95;59.51
45523;BME280;31254;51.680;5.394;2023-06-26T02:34:35;101280.66;;;22.99;59.14
45523;BME280;31254;51.680;5.394;2023-06-26T02:37:04;101287.53;;;22.97;59.32
45523;BME280;31254;51.680;5.394;2023-06-26T02:39:34;101162.97;;;22.15;59.45
45523;BME280;31254;51.680;5.394;2023-06-26T02:42:01;101285.63;;;22.91;59.49
45523;BME280;31254;51.680;5.394;2023-06-26T02:44:27;101285.66;;;22.84;59.86
45523;BME280;31254;51.680;5.394;2023-06-26T02:46:57;101290.13;;;22.85;59.91
45523;BME280;31254;51.680;5.394;2023-06-26T02:49:23;101304.47;;;22.82;60.47
45523;BME280;31254;51.680;5.394;2023-06-26T02:51:50;101296.81;;;22.71;60.48
45523;BME280;31254;51.680;5.394;2023-06-26T02:54:16;101294.94;;;22.64;60.38
45523;BME280;31254;51.680;5.394;2023-06-26T02:56:43;101264.19;;;22.46;60.88
45523;BME280;31254;51.680;5.394;2023-06-26T02:59:14;101299.41;;;22.66;61.20
45523;BME280;31254;51.680;5.394;2023-06-26T03:01:43;101253.56;;;22.30;61.67
45523;BME280;31254;51.680;5.394;2023-06-26T03:04:09;101297.97;;;22.50;61.41
45523;BME280;31254;51.680;5.394;2023-06-26T03:06:41;101303.75;;;22.48;62.16
45523;BME280;31254;51.680;5.394;2023-06-26T03:09:08;101288.19;;;22.34;62.39
45523;BME280;31254;51.680;5.394;2023-06-26T03:11:35;101310.19;;;22.42;62.57
45523;BME280;31254;51.680;5.394;2023-06-26T03:14:04;101317.84;;;22.46;62.99
45523;BME280;31254;51.680;5.394;2023-06-26T03:16:31;101321.09;;;22.43;63.15
45523;BME280;31254;51.680;5.394;2023-06-26T03:18:57;101316.19;;;22.39;63.62
45523;BME280;31254;51.680;5.394;2023-06-26T03:21:24;101316.00;;;22.34;63.74
45523;BME280;31254;51.680;5.394;2023-06-26T03:23:51;101323.44;;;22.33;64.04
45523;BME280;31254;51.680;5.394;2023-06-26T03:26:21;101235.47;;;21.80;64.14
45523;BME280;31254;51.680;5.394;2023-06-26T03:28:54;101307.81;;;22.25;64.44
45523;BME280;31254;51.680;5.394;2023-06-26T03:31:23;101307.19;;;22.23;64.48
45523;BME280;31254;51.680;5.394;2023-06-26T03:33:50;101303.16;;;22.19;64.91
45523;BME280;31254;51.680;5.394;2023-06-26T03:36:17;101292.91;;;22.13;65.02
45523;BME280;31254;51.680;5.394;2023-06-26T03:38:43;101299.28;;;22.20;64.95
45523;BME280;31254;51.680;5.394;2023-06-26T03:41:10;101296.91;;;22.24;65.11
45523;BME280;31254;51.680;5.394;2023-06-26T03:43:37;101302.75;;;22.29;65.01
45523;BME280;31254;51.680;5.394;2023-06-26T03:46:04;101317.91;;;22.33;65.38
45523;BME280;31254;51.680;5.394;2023-06-26T03:48:30;101311.69;;;22.38;65.15
45523;BME280;31254;51.680;5.394;2023-06-26T03:50:57;101323.44;;;22.33;65.43
45523;BME280;31254;51.680;5.394;2023-06-26T03:53:24;101319.41;;;22.29;65.58
45523;BME280;31254;51.680;5.394;2023-06-26T03:55:53;101324.06;;;22.28;65.83
45523;BME280;31254;51.680;5.394;2023-06-26T03:58:20;101322.19;;;22.22;65.97
45523;BME280;31254;51.680;5.394;2023-06-26T04:00:46;101334.78;;;22.32;66.06
45523;BME280;31254;51.680;5.394;2023-06-26T04:03:13;101339.72;;;22.30;66.38
45523;BME280;31254;51.680;5.394;2023-06-26T04:05:40;101338.22;;;22.34;66.13
45523;BME280;31254;51.680;5.394;2023-06-26T04:08:07;101313.22;;;22.34;65.71
45523;BME280;31254;51.680;5.394;2023-06-26T04:10:36;101332.19;;;22.57;65.25
45523;BME280;31254;51.680;5.394;2023-06-26T04:13:05;101360.53;;;22.79;64.89
45523;BME280;31254;51.680;5.394;2023-06-26T04:15:32;101353.19;;;22.98;64.86
45523;BME280;31254;51.680;5.394;2023-06-26T04:18:03;101351.00;;;23.20;64.39
45523;BME280;31254;51.680;5.394;2023-06-26T04:20:36;101344.06;;;23.68;62.93
45523;BME280;31254;51.680;5.394;2023-06-26T04:23:04;101340.25;;;24.19;61.60
45523;BME280;31254;51.680;5.394;2023-06-26T04:25:31;101351.41;;;24.63;60.36
45523;BME280;31254;51.680;5.394;2023-06-26T04:27:58;101350.53;;;25.18;58.89
45523;BME280;31254;51.680;5.394;2023-06-26T04:30:25;101354.81;;;25.51;58.12
45523;BME280;31254;51.680;5.394;2023-06-26T04:32:51;101333.38;;;25.75;57.08
45523;BME280;31254;51.680;5.394;2023-06-26T04:35:18;101347.50;;;25.80;57.22
45523;BME280;31254;51.680;5.394;2023-06-26T04:37:46;101367.94;;;25.92;57.20
45523;BME280;31254;51.680;5.394;2023-06-26T04:40:13;101345.34;;;25.94;56.80
45523;BME280;31254;51.680;5.394;2023-06-26T04:42:40;101357.59;;;25.93;56.48
45523;BME280;31254;51.680;5.394;2023-06-26T04:45:10;101354.16;;;25.67;57.40
45523;BME280;31254;51.680;5.394;2023-06-26T04:47:36;101367.00;;;25.99;56.87
45523;BME280;31254;51.680;5.394;2023-06-26T04:50:04;101383.69;;;25.75;57.34
45523;BME280;31254;51.680;5.394;2023-06-26T04:52:31;101390.34;;;25.32;58.56
45523;BME280;31254;51.680;5.394;2023-06-26T04:55:00;101389.22;;;24.96;59.24
45523;BME280;31254;51.680;5.394;2023-06-26T04:57:27;101394.25;;;25.73;57.66
45523;BME280;31254;51.680;5.394;2023-06-26T04:59:53;101388.09;;;26.84;54.38
45523;BME280;31254;51.680;5.394;2023-06-26T05:02:20;101390.94;;;27.53;52.31
45523;BME280;31254;51.680;5.394;2023-06-26T05:04:47;101388.44;;;27.69;51.58
45523;BME280;31254;51.680;5.394;2023-06-26T05:07:17;101397.34;;;28.12;51.07
45523;BME280;31254;51.680;5.394;2023-06-26T05:09:46;101398.53;;;28.67;49.29
45523;BME280;31254;51.680;5.394;2023-06-26T05:12:13;101406.44;;;29.31;47.72
45523;BME280;31254;51.680;5.394;2023-06-26T05:14:40;101389.75;;;29.96;46.45
45523;BME280;31254;51.680;5.394;2023-06-26T05:17:07;101413.56;;;29.88;46.56
45523;BME280;31254;51.680;5.394;2023-06-26T05:19:33;101413.22;;;29.35;47.47
45523;BME280;31254;51.680;5.394;2023-06-26T05:22:03;101387.44;;;28.04;49.76
45523;BME280;31254;51.680;5.394;2023-06-26T05:24:37;101413.16;;;28.18;49.89
45523;BME280;31254;51.680;5.394;2023-06-26T05:27:05;101416.78;;;27.56;51.31
45523;BME280;31254;51.680;5.394;2023-06-26T05:29:33;101417.44;;;27.34;52.25
45523;BME280;31254;51.680;5.394;2023-06-26T05:32:05;101419.41;;;27.91;50.48
45523;BME280;31254;51.680;5.394;2023-06-26T05:34:32;101417.22;;;28.44;48.94
45523;BME280;31254;51.680;5.394;2023-06-26T05:37:01;101424.72;;;29.33;47.20
45523;BME280;31254;51.680;5.394;2023-06-26T05:39:28;101407.31;;;30.88;43.28
45523;BME280;31254;51.680;5.394;2023-06-26T05:41:55;101429.72;;;31.89;41.89
45523;BME280;31254;51.680;5.394;2023-06-26T05:44:22;101429.78;;;32.66;40.14
45523;BME280;31254;51.680;5.394;2023-06-26T05:46:52;101430.84;;;31.93;41.04
45523;BME280;31254;51.680;5.394;2023-06-26T05:49:18;101446.69;;;32.15;40.95
45523;BME280;31254;51.680;5.394;2023-06-26T05:51:45;101450.84;;;33.10;39.28
45523;BME280;31254;51.680;5.394;2023-06-26T05:54:12;101403.25;;;33.93;36.61
45523;BME280;31254;51.680;5.394;2023-06-26T05:56:40;101458.00;;;34.12;36.89
45523;BME280;31254;51.680;5.394;2023-06-26T05:59:11;101449.47;;;34.52;36.25
45523;BME280;31254;51.680;5.394;2023-06-26T06:01:38;101456.72;;;34.92;35.37
45523;BME280;31254;51.680;5.394;2023-06-26T06:04:05;101469.41;;;35.00;34.71
45523;BME280;31254;51.680;5.394;2023-06-26T06:06:32;101464.59;;;34.37;35.84
45523;BME280;31254;51.680;5.394;2023-06-26T06:08:58;101472.72;;;34.83;35.08
45523;BME280;31254;51.680;5.394;2023-06-26T06:11:27;101475.50;;;34.24;36.06
45523;BME280;31254;51.680;5.394;2023-06-26T06:13:54;101483.16;;;32.68;38.67
45523;BME280;31254;51.680;5.394;2023-06-26T06:16:20;101484.94;;;31.69;39.98
45523;BME280;31254;51.680;5.394;2023-06-26T06:18:47;101490.00;;;31.67;39.88
45523;BME280;31254;51.680;5.394;2023-06-26T06:21:14;101497.38;;;31.74;39.75
45523;BME280;31254;51.680;5.394;2023-06-26T06:23:40;101476.28;;;33.10;37.38
45523;BME280;31254;51.680;5.394;2023-06-26T06:26:07;101486.31;;;34.47;34.84
45523;BME280;31254;51.680;5.394;2023-06-26T06:28:34;101491.94;;;34.52;35.17
45523;BME280;31254;51.680;5.394;2023-06-26T06:31:00;101485.69;;;35.43;33.35
45523;BME280;31254;51.680;5.394;2023-06-26T06:33:27;101498.56;;;36.35;31.91
45523;BME280;31254;51.680;5.394;2023-06-26T06:35:54;101486.84;;;36.56;31.75
45523;BME280;31254;51.680;5.394;2023-06-26T06:38:23;101483.44;;;36.40;31.03
45523;BME280;31254;51.680;5.394;2023-06-26T06:40:50;101506.28;;;36.11;31.51
45523;BME280;31254;51.680;5.394;2023-06-26T06:43:17;101511.66;;;34.96;32.53
45523;BME280;31254;51.680;5.394;2023-06-26T06:45:46;101518.19;;;34.28;33.00
45523;BME280;31254;51.680;5.394;2023-06-26T06:48:13;101528.22;;;33.34;34.90
45523;BME280;31254;51.680;5.394;2023-06-26T06:50:39;101535.81;;;31.42;37.71
45523;BME280;31254;51.680;5.394;2023-06-26T06:53:07;101537.94;;;29.95;39.93
45523;BME280;31254;51.680;5.394;2023-06-26T06:55:34;101533.81;;;29.03;42.06
45523;BME280;31254;51.680;5.394;2023-06-26T06:58:04;101553.88;;;28.15;44.12
45523;BME280;31254;51.680;5.394;2023-06-26T07:00:40;101556.63;;;27.57;45.14
45523;BME280;31254;51.680;5.394;2023-06-26T07:03:11;101575.75;;;27.36;45.74
45523;BME280;31254;51.680;5.394;2023-06-26T07:05:43;101562.94;;;26.93;46.09
45523;BME280;31254;51.680;5.394;2023-06-26T07:08:10;101559.66;;;26.73;47.34
45523;BME280;31254;51.680;5.394;2023-06-26T07:10:37;101567.81;;;26.86;47.17
45523;BME280;31254;51.680;5.394;2023-06-26T07:13:05;101546.38;;;26.80;47.25
45523;BME280;31254;51.680;5.394;2023-06-26T07:15:34;101557.09;;;26.83;47.20
45523;BME280;31254;51.680;5.394;2023-06-26T07:18:01;101561.72;;;28.58;43.84
45523;BME280;31254;51.680;5.394;2023-06-26T07:20:28;101570.03;;;30.49;40.30
45523;BME280;31254;51.680;5.394;2023-06-26T07:22:59;101575.53;;;29.11;42.80
45523;BME280;31254;51.680;5.394;2023-06-26T07:25:26;101565.44;;;28.18;44.57
45523;BME280;31254;51.680;5.394;2023-06-26T07:27:53;101573.34;;;27.81;45.27
45523;BME280;31254;51.680;5.394;2023-06-26T07:30:19;101584.28;;;27.18;47.04
45523;BME280;31254;51.680;5.394;2023-06-26T07:32:49;101600.78;;;26.84;48.00
45523;BME280;31254;51.680;5.394;2023-06-26T07:35:16;101583.56;;;27.34;46.19
45523;BME280;31254;51.680;5.394;2023-06-26T07:37:45;101589.50;;;28.14;44.77
45523;BME280;31254;51.680;5.394;2023-06-26T07:40:12;101592.41;;;27.67;45.96
45523;BME280;31254;51.680;5.394;2023-06-26T07:42:44;101615.81;;;27.37;46.94
45523;BME280;31254;51.680;5.394;2023-06-26T07:45:11;101596.66;;;27.22;46.56
45523;BME280;31254;51.680;5.394;2023-06-26T07:47:40;101615.44;;;27.22;46.21
45523;BME280;31254;51.680;5.394;2023-06-26T07:50:07;101615.50;;;26.79;47.10
45523;BME280;31254;51.680;5.394;2023-06-26T07:52:34;101606.91;;;27.16;46.57
45523;BME280;31254;51.680;5.394;2023-06-26T07:55:03;101627.31;;;28.69;42.96
45523;BME280;31254;51.680;5.394;2023-06-26T07:57:31;101618.81;;;28.81;43.15
45523;BME280;31254;51.680;5.394;2023-06-26T07:59:58;101613.78;;;30.61;40.03
45523;BME280;31254;51.680;5.394;2023-06-26T08:02:25;101614.25;;;29.65;40.76
45523;BME280;31254;51.680;5.394;2023-06-26T08:04:52;101613.88;;;28.42;43.53
45523;BME280;31254;51.680;5.394;2023-06-26T08:07:18;101608.50;;;27.71;44.17
45523;BME280;31254;51.680;5.394;2023-06-26T08:09:45;101626.03;;;27.67;43.94
45523;BME280;31254;51.680;5.394;2023-06-26T08:12:14;101612.97;;;27.96;42.87
45523;BME280;31254;51.680;5.394;2023-06-26T08:14:41;101568.44;;;28.91;39.86
45523;BME280;31254;51.680;5.394;2023-06-26T08:17:09;101616.47;;;29.80;38.73
45523;BME280;31254;51.680;5.394;2023-06-26T08:19:36;101635.50;;;30.39;37.51
45523;BME280;31254;51.680;5.394;2023-06-26T08:22:03;101603.38;;;31.75;34.96
45523;BME280;31254;51.680;5.394;2023-06-26T08:24:30;101620.34;;;32.53;33.60
45523;BME280;31254;51.680;5.394;2023-06-26T08:26:59;101620.69;;;32.77;32.71
45523;BME280;31254;51.680;5.394;2023-06-26T08:29:25;101615.81;;;33.70;31.47
45523;BME280;31254;51.680;5.394;2023-06-26T08:31:54;101612.84;;;34.56;30.42
45523;BME280;31254;51.680;5.394;2023-06-26T08:34:21;101632.94;;;34.05;31.12
45523;BME280;31254;51.680;5.394;2023-06-26T08:36:50;101631.13;;;32.87;31.39
45523;BME280;31254;51.680;5.394;2023-06-26T08:39:20;101638.13;;;33.67;29.40
45523;BME280;31254;51.680;5.394;2023-06-26T08:41:46;101586.16;;;32.44;30.79
45523;BME280;31254;51.680;5.394;2023-06-26T08:44:13;101650.88;;;32.77;30.99
45523;BME280;31254;51.680;5.394;2023-06-26T08:46:40;101637.31;;;33.61;30.39
45523;BME280;31254;51.680;5.394;2023-06-26T08:49:37;101643.44;;;33.94;30.73
45523;BME280;31254;51.680;5.394;2023-06-26T08:52:31;101663.94;;;33.24;30.82
45523;BME280;31254;51.680;5.394;2023-06-26T08:55:06;101652.06;;;33.38;30.34
45523;BME280;31254;51.680;5.394;2023-06-26T08:57:33;101675.78;;;32.85;30.83
45523;BME280;31254;51.680;5.394;2023-06-26T09:00:03;101674.53;;;32.45;30.92
45523;BME280;31254;51.680;5.394;2023-06-26T09:02:33;101670.69;;;32.82;30.72
45523;BME280;31254;51.680;5.394;2023-06-26T09:05:00;101662.91;;;32.36;30.92
45523;BME280;31254;51.680;5.394;2023-06-26T09:07:29;101661.25;;;32.56;30.74
45523;BME280;31254;51.680;5.394;2023-06-26T09:09:56;101667.00;;;33.12;30.24
45523;BME280;31254;51.680;5.394;2023-06-26T09:12:41;101676.06;;;32.94;30.06
45523;BME280;31254;51.680;5.394;2023-06-26T09:15:14;101688.72;;;32.66;31.07
45523;BME280;31254;51.680;5.394;2023-06-26T09:17:42;101675.84;;;32.22;31.48
45523;BME280;31254;51.680;5.394;2023-06-26T09:20:11;101677.84;;;31.04;33.19
45523;BME280;31254;51.680;5.394;2023-06-26T09:22:47;101681.84;;;31.13;32.68
45523;BME280;31254;51.680;5.394;2023-06-26T09:25:14;101674.44;;;31.71;32.65
45523;BME280;31254;51.680;5.394;2023-06-26T09:27:42;101679.28;;;32.34;31.71
45523;BME280;31254;51.680;5.394;2023-06-26T09:30:09;101682.19;;;32.60;31.30
45523;BME280;31254;51.680;5.394;2023-06-26T09:32:36;101697.84;;;32.25;31.91
45523;BME280;31254;51.680;5.394;2023-06-26T09:35:04;101695.34;;;31.76;32.47
45523;BME280;31254;51.680;5.394;2023-06-26T09:37:31;101704.00;;;32.12;32.00
45523;BME280;31254;51.680;5.394;2023-06-26T09:39:59;101687.19;;;32.37;31.26
45523;BME280;31254;51.680;5.394;2023-06-26T09:42:25;101708.47;;;31.27;32.95
45523;BME280;31254;51.680;5.394;2023-06-26T09:44:52;101722.50;;;30.95;33.37
45523;BME280;31254;51.680;5.394;2023-06-26T09:47:20;101716.84;;;30.01;34.48
45523;BME280;31254;51.680;5.394;2023-06-26T09:49:53;101720.00;;;30.44;34.44
45523;BME280;31254;51.680;5.394;2023-06-26T09:52:21;101705.97;;;29.88;34.83
45523;BME280;31254;51.680;5.394;2023-06-26T09:55:08;101723.91;;;29.02;36.85
45523;BME280;31254;51.680;5.394;2023-06-26T09:57:35;101727.31;;;28.47;38.13
45523;BME280;31254;51.680;5.394;2023-06-26T10:00:03;101733.16;;;28.86;37.62
45523;BME280;31254;51.680;5.394;2023-06-26T10:02:31;101728.94;;;29.00;36.33
45523;BME280;31254;51.680;5.394;2023-06-26T10:04:58;101701.53;;;29.07;35.33
45523;BME280;31254;51.680;5.394;2023-06-26T10:07:25;101730.19;;;29.38;34.72
45523;BME280;31254;51.680;5.394;2023-06-26T10:09:54;101736.00;;;29.48;34.70
45523;BME280;31254;51.680;5.394;2023-06-26T10:12:29;101750.13;;;29.53;34.52
45523;BME280;31254;51.680;5.394;2023-06-26T10:14:57;101740.06;;;29.58;34.43
45523;BME280;31254;51.680;5.394;2023-06-26T10:17:27;101692.03;;;29.08;33.30
45523;BME280;31254;51.680;5.394;2023-06-26T10:19:55;101743.66;;;29.36;33.72
45523;BME280;31254;51.680;5.394;2023-06-26T10:22:27;101754.38;;;29.39;33.23
45523;BME280;31254;51.680;5.394;2023-06-26T10:24:58;101749.28;;;29.36;33.43
45523;BME280;31254;51.680;5.394;2023-06-26T10:27:29;101682.97;;;28.89;33.01
45523;BME280;31254;51.680;5.394;2023-06-26T10:30:02;101749.34;;;29.24;33.14
45523;BME280;31254;51.680;5.394;2023-06-26T10:32:32;101750.91;;;29.03;32.77
45523;BME280;31254;51.680;5.394;2023-06-26T10:35:05;101749.50;;;28.89;32.43
45523;BME280;31254;51.680;5.394;2023-06-26T10:37:46;101752.81;;;28.86;32.40
45523;BME280;31254;51.680;5.394;2023-06-26T10:40:13;101769.25;;;28.65;31.76
45523;BME280;31254;51.680;5.394;2023-06-26T10:42:41;101744.38;;;28.57;31.88
45523;BME280;31254;51.680;5.394;2023-06-26T10:45:15;101761.50;;;28.84;31.96
45523;BME280;31254;51.680;5.394;2023-06-26T10:47:46;101754.16;;;28.83;31.87
45523;BME280;31254;51.680;5.394;2023-06-26T10:53:09;101750.69;;;28.93;32.48
45523;BME280;31254;51.680;5.394;2023-06-26T10:55:48;101753.91;;;28.85;32.61
45523;BME280;31254;51.680;5.394;2023-06-26T11:03:45;101734.16;;;28.39;32.98
45523;BME280;31254;51.680;5.394;2023-06-26T11:06:15;101775.47;;;28.55;33.38
45523;BME280;31254;51.680;5.394;2023-06-26T11:08:53;101773.78;;;28.54;33.75
45523;BME280;31254;51.680;5.394;2023-06-26T11:14:22;101787.88;;;28.19;34.95
45523;BME280;31254;51.680;5.394;2023-06-26T11:16:49;101798.22;;;28.06;34.58
45523;BME280;31254;51.680;5.394;2023-06-26T11:19:19;101756.38;;;28.17;33.93
45523;BME280;31254;51.680;5.394;2023-06-26T11:21:49;101781.88;;;28.27;34.53
45523;BME280;31254;51.680;5.394;2023-06-26T11:24:16;101776.75;;;28.24;34.46
45523;BME280;31254;51.680;5.394;2023-06-26T11:26:44;101777.63;;;28.13;34.67
45523;BME280;31254;51.680;5.394;2023-06-26T11:29:12;101802.72;;;28.31;35.02
45523;BME280;31254;51.680;5.394;2023-06-26T11:31:41;101782.50;;;28.17;34.66
45523;BME280;31254;51.680;5.394;2023-06-26T11:34:11;101804.69;;;28.31;34.90
45523;BME280;31254;51.680;5.394;2023-06-26T11:36:41;101824.41;;;28.36;34.77
45523;BME280;31254;51.680;5.394;2023-06-26T11:39:10;101816.13;;;28.41;34.16
45523;BME280;31254;51.680;5.394;2023-06-26T11:41:41;101827.88;;;28.14;34.20
45523;BME280;31254;51.680;5.394;2023-06-26T11:44:09;101831.81;;;27.83;34.11
45523;BME280;31254;51.680;5.394;2023-06-26T11:46:37;101827.69;;;27.73;34.83
45523;BME280;31254;51.680;5.394;2023-06-26T11:49:08;101835.38;;;27.78;34.77
45523;BME280;31254;51.680;5.394;2023-06-26T11:51:35;101822.38;;;27.42;35.54
45523;BME280;31254;51.680;5.394;2023-06-26T11:54:09;101853.69;;;27.50;35.57
45523;BME280;31254;51.680;5.394;2023-06-26T11:56:36;101858.31;;;27.45;35.69
45523;BME280;31254;51.680;5.394;2023-06-26T11:59:03;101847.75;;;27.28;35.27
45523;BME280;31254;51.680;5.394;2023-06-26T12:04:03;101852.72;;;26.96;35.43
45523;BME280;31254;51.680;5.394;2023-06-26T12:06:34;101854.50;;;27.09;35.41
45523;BME280;31254;51.680;5.394;2023-06-26T12:09:05;101853.72;;;27.02;35.09
45523;BME280;31254;51.680;5.394;2023-06-26T12:11:33;101861.78;;;27.10;36.06
45523;BME280;31254;51.680;5.394;2023-06-26T12:14:05;101851.97;;;27.19;35.89
45523;BME280;31254;51.680;5.394;2023-06-26T12:16:33;101852.13;;;27.24;35.24
45523;BME280;31254;51.680;5.394;2023-06-26T12:19:04;101860.47;;;27.12;34.81
45523;BME280;31254;51.680;5.394;2023-06-26T12:21:44;101873.53;;;27.18;34.63
45523;BME280;31254;51.680;5.394;2023-06-26T12:24:16;101859.50;;;27.07;34.65
45523;BME280;31254;51.680;5.394;2023-06-26T12:26:49;101859.50;;;27.07;35.10
45523;BME280;31254;51.680;5.394;2023-06-26T12:29:28;101847.97;;;27.15;35.27
45523;BME280;31254;51.680;5.394;2023-06-26T12:31:57;101786.13;;;26.86;35.38
45523;BME280;31254;51.680;5.394;2023-06-26T12:34:31;101876.16;;;27.62;35.77
45523;BME280;31254;51.680;5.394;2023-06-26T12:37:10;101866.69;;;27.87;35.41
45523;BME280;31254;51.680;5.394;2023-06-26T12:39:47;101848.16;;;27.86;34.57
45523;BME280;31254;51.680;5.394;2023-06-26T12:42:19;101865.66;;;28.00;34.54
45523;BME280;31254;51.680;5.394;2023-06-26T12:44:47;101852.34;;;28.07;34.03
45523;BME280;31254;51.680;5.394;2023-06-26T12:47:15;101855.56;;;28.11;34.66
45523;BME280;31254;51.680;5.394;2023-06-26T12:49:50;101873.09;;;28.06;34.37
45523;BME280;31254;51.680;5.394;2023-06-26T12:52:21;101861.03;;;28.17;34.68
45523;BME280;31254;51.680;5.394;2023-06-26T12:54:52;101864.69;;;28.06;34.32
45523;BME280;31254;51.680;5.394;2023-06-26T12:57:19;101876.88;;;28.12;33.90
45523;BME280;31254;51.680;5.394;2023-06-26T12:59:46;101850.72;;;27.87;33.56
45523;BME280;31254;51.680;5.394;2023-06-26T13:02:17;101864.16;;;27.97;33.23
45523;BME280;31254;51.680;5.394;2023-06-26T13:04:43;101867.97;;;28.03;33.91
45523;BME280;31254;51.680;5.394;2023-06-26T13:07:13;101874.53;;;27.97;34.30
45523;BME280;31254;51.680;5.394;2023-06-26T13:09:42;101884.06;;;28.07;33.84
45523;BME280;31254;51.680;5.394;2023-06-26T13:12:14;101859.66;;;28.20;33.55
45523;BME280;31254;51.680;5.394;2023-06-26T13:14:43;101880.53;;;28.24;33.25
45523;BME280;31254;51.680;5.394;2023-06-26T13:17:11;101868.94;;;28.32;33.03
45523;BME280;31254;51.680;5.394;2023-06-26T13:19:37;101870.75;;;28.50;32.82
45523;BME280;31254;51.680;5.394;2023-06-26T13:22:04;101878.72;;;28.41;33.03
45523;BME280;31254;51.680;5.394;2023-06-26T13:24:31;101879.69;;;28.35;32.59